createdAt,value
2023-05-15T00:00:33.932Z,25.05
2023-05-15T00:02:39.145Z,25.06
2023-05-15T00:04:44.669Z,25.07
2023-05-15T00:06:49.812Z,25.09
2023-05-15T00:08:54.977Z,25.08
2023-05-15T00:11:01.821Z,25.08
2023-05-15T00:13:07.404Z,25.1
2023-05-15T00:15:12.531Z,25.13
2023-05-15T00:17:17.628Z,25.14
2023-05-15T00:19:22.676Z,25.16
2023-05-15T00:21:27.789Z,25.16
2023-05-15T00:23:32.929Z,25.17
2023-05-15T00:25:38.085Z,25.15
2023-05-15T00:27:43.169Z,25.15
2023-05-15T00:29:48.305Z,25.15
2023-05-15T00:31:53.401Z,25.14
2023-05-15T00:33:58.854Z,25.16
2023-05-15T00:36:03.993Z,25.16
2023-05-15T00:38:08.991Z,25.15
2023-05-15T00:40:14.072Z,25.14
2023-05-15T00:42:19.096Z,25.15
2023-05-15T00:44:24.214Z,25.14
2023-05-15T00:46:29.280Z,25.13
2023-05-15T00:48:34.519Z,25.12
2023-05-15T00:50:39.522Z,25.13
2023-05-15T00:52:44.674Z,25.13
2023-05-15T00:54:49.678Z,25.13
2023-05-15T00:56:54.759Z,25.14
2023-05-15T00:58:59.835Z,25.14
2023-05-15T01:01:06.270Z,25.13
2023-05-15T01:03:12.841Z,25.12
2023-05-15T01:05:18.147Z,25.12
2023-05-15T01:07:23.159Z,25.11
2023-05-15T01:09:28.178Z,25.09
2023-05-15T01:11:33.548Z,25.09
2023-05-15T01:13:38.622Z,25.07
2023-05-15T01:15:43.728Z,25.07
2023-05-15T01:17:49.186Z,25.05
2023-05-15T01:19:54.623Z,25.06
2023-05-15T01:22:00.273Z,25.07
2023-05-15T01:24:05.356Z,25.07
2023-05-15T01:26:10.340Z,25.06
2023-05-15T01:28:15.566Z,25.04
2023-05-15T01:30:20.626Z,25.04
2023-05-15T01:32:25.660Z,25.04
2023-05-15T01:34:31.213Z,25.04
2023-05-15T01:36:36.346Z,25.01
2023-05-15T01:38:41.314Z,24.99
2023-05-15T01:40:46.449Z,24.99
2023-05-15T01:42:51.468Z,24.96
2023-05-15T01:44:56.567Z,24.95
2023-05-15T01:47:01.607Z,24.95
2023-05-15T01:49:06.638Z,24.94
2023-05-15T01:51:11.670Z,24.96
2023-05-15T01:53:16.661Z,24.98
2023-05-15T01:55:24.154Z,24.97
2023-05-15T01:57:30.243Z,24.96
2023-05-15T01:59:35.245Z,24.94
2023-05-15T02:01:40.345Z,24.91
2023-05-15T02:03:45.518Z,24.91
2023-05-15T02:05:50.932Z,24.91
2023-05-15T02:07:56.027Z,24.9
2023-05-15T02:10:01.045Z,24.9
2023-05-15T02:12:06.077Z,24.89
2023-05-15T02:14:11.320Z,24.86
2023-05-15T02:16:16.319Z,24.85
2023-05-15T02:18:21.685Z,24.83
2023-05-15T02:20:26.669Z,24.82
2023-05-15T02:22:31.747Z,24.83
2023-05-15T02:24:36.814Z,24.83
2023-05-15T02:26:42.007Z,24.84
2023-05-15T02:28:46.980Z,24.83
2023-05-15T02:30:51.943Z,24.8
2023-05-15T02:32:57.069Z,24.77
2023-05-15T02:35:02.332Z,24.76
2023-05-15T02:37:07.466Z,24.77
2023-05-15T02:39:12.991Z,24.78
2023-05-15T02:41:18.023Z,24.76
2023-05-15T02:43:23.160Z,24.74
2023-05-15T02:45:28.368Z,24.75
2023-05-15T02:47:33.585Z,24.75
2023-05-15T02:49:38.867Z,24.75
2023-05-15T02:52:24.782Z,24.72
2023-05-15T02:54:29.814Z,24.72
2023-05-15T02:56:34.905Z,24.71
2023-05-15T02:58:40.172Z,24.72
2023-05-15T03:00:45.248Z,24.72
2023-05-15T03:02:50.346Z,24.72
2023-05-15T03:04:55.474Z,24.71
2023-05-15T03:07:00.667Z,24.71
2023-05-15T03:09:05.734Z,24.7
2023-05-15T03:11:10.745Z,24.71
2023-05-15T03:13:16.880Z,24.7
2023-05-15T03:15:21.963Z,24.68
2023-05-15T03:17:27.534Z,24.68
2023-05-15T03:19:32.746Z,24.68
2023-05-15T03:21:37.884Z,24.68
2023-05-15T03:23:42.865Z,24.68
2023-05-15T03:25:48.013Z,24.68
2023-05-15T03:27:53.100Z,24.67
2023-05-15T03:29:58.220Z,24.65
2023-05-15T03:32:03.306Z,24.66
2023-05-15T03:34:08.389Z,24.67
2023-05-15T03:36:13.476Z,24.67
2023-05-15T03:38:18.585Z,24.66
2023-05-15T03:40:24.108Z,24.65
2023-05-15T03:42:29.130Z,24.64
2023-05-15T03:44:34.232Z,24.64
2023-05-15T03:46:39.459Z,24.64
2023-05-15T03:48:44.593Z,24.63
2023-05-15T03:50:49.605Z,24.63
2023-05-15T03:52:54.620Z,24.62
2023-05-15T03:54:59.657Z,24.62
2023-05-15T03:57:04.799Z,24.62
2023-05-15T03:59:09.837Z,24.6
2023-05-15T04:01:14.879Z,24.61
2023-05-15T04:03:20.019Z,24.59
2023-05-15T04:05:25.789Z,24.58
2023-05-15T04:07:31.764Z,24.58
2023-05-15T04:09:36.849Z,24.57
2023-05-15T04:11:41.921Z,24.57
2023-05-15T04:13:46.960Z,24.56
2023-05-15T04:15:51.945Z,24.54
2023-05-15T04:17:57.198Z,24.54
2023-05-15T04:20:02.501Z,24.54
2023-05-15T04:22:07.562Z,24.53
2023-05-15T04:24:12.603Z,24.53
2023-05-15T04:26:17.606Z,24.53
2023-05-15T04:28:22.665Z,24.52
2023-05-15T04:30:27.664Z,24.51
2023-05-15T04:32:32.743Z,24.5
2023-05-15T04:34:37.924Z,24.49
2023-05-15T04:36:43.193Z,24.52
2023-05-15T04:38:48.365Z,24.5
2023-05-15T04:40:53.389Z,24.51
2023-05-15T04:42:58.541Z,24.5
2023-05-15T04:45:03.565Z,24.5
2023-05-15T04:47:08.581Z,24.5
2023-05-15T04:49:13.618Z,24.47
2023-05-15T04:51:18.655Z,24.49
2023-05-15T04:53:23.715Z,24.49
2023-05-15T04:55:28.753Z,24.49
2023-05-15T04:57:36.400Z,24.5
2023-05-15T04:59:41.400Z,24.51
2023-05-15T05:01:46.618Z,24.52
2023-05-15T05:03:51.911Z,24.5
2023-05-15T05:05:57.203Z,24.49
2023-05-15T05:08:02.214Z,24.5
2023-05-15T05:10:07.243Z,24.51
2023-05-15T05:12:12.426Z,24.5
2023-05-15T05:14:17.600Z,24.49
2023-05-15T05:16:22.838Z,24.5
2023-05-15T05:18:28.015Z,24.4
2023-05-15T05:20:33.201Z,24.21
2023-05-15T05:22:38.254Z,23.95
2023-05-15T05:24:43.250Z,23.72
2023-05-15T05:26:48.382Z,23.43
2023-05-15T05:28:53.381Z,23.2
2023-05-15T05:30:58.541Z,23.06
2023-05-15T05:33:03.810Z,22.98
2023-05-15T05:35:09.025Z,22.89
2023-05-15T05:37:14.053Z,22.79
2023-05-15T05:39:19.050Z,22.75
2023-05-15T05:41:24.210Z,22.66
2023-05-15T05:43:29.235Z,22.63
2023-05-15T05:45:35.590Z,22.58
2023-05-15T05:47:40.607Z,22.53
2023-05-15T05:49:46.071Z,22.51
2023-05-15T05:51:51.168Z,22.65
2023-05-15T05:53:56.236Z,22.77
2023-05-15T05:56:01.308Z,22.94
2023-05-15T05:58:08.636Z,23.07
2023-05-15T06:00:29.162Z,23.2
2023-05-15T06:02:34.290Z,23.32
2023-05-15T06:04:39.712Z,23.41
2023-05-15T06:06:44.745Z,23.5
2023-05-15T06:08:49.784Z,23.56
2023-05-15T06:10:57.417Z,23.63
2023-05-15T06:13:02.601Z,23.7
2023-05-15T06:15:07.656Z,23.75
2023-05-15T06:17:12.642Z,23.78
2023-05-15T06:19:18.010Z,23.8
2023-05-15T06:21:23.240Z,23.8
2023-05-15T06:23:28.244Z,23.85
2023-05-15T06:25:33.356Z,23.85
2023-05-15T06:27:38.392Z,23.86
2023-05-15T06:29:43.388Z,23.88
2023-05-15T06:31:48.550Z,23.9
2023-05-15T06:33:53.593Z,23.85
2023-05-15T06:35:58.581Z,23.89
2023-05-15T06:38:03.696Z,23.88
2023-05-15T06:40:08.865Z,23.84
2023-05-15T06:42:13.897Z,23.86
2023-05-15T06:44:19.111Z,23.85
2023-05-15T06:46:26.280Z,23.83
2023-05-15T06:48:31.434Z,23.8
2023-05-15T06:50:36.479Z,23.82
2023-05-15T06:52:41.435Z,23.83
2023-05-15T06:54:46.409Z,23.87
2023-05-15T06:56:51.432Z,23.89
2023-05-15T06:58:56.455Z,23.89
2023-05-15T07:01:01.487Z,23.9
2023-05-15T07:03:06.632Z,23.92
2023-05-15T07:05:11.894Z,23.92
2023-05-15T07:07:17.491Z,23.91
2023-05-15T07:09:22.636Z,23.91
2023-05-15T07:11:27.669Z,23.9
2023-05-15T07:13:32.649Z,23.88
2023-05-15T07:15:37.651Z,23.88
2023-05-15T07:17:42.746Z,23.89
2023-05-15T07:19:48.011Z,23.89
2023-05-15T07:21:53.095Z,23.9
2023-05-15T07:23:58.102Z,23.9
2023-05-15T07:26:03.149Z,23.88
2023-05-15T07:28:08.255Z,23.84
2023-05-15T07:30:13.372Z,23.87
2023-05-15T07:32:18.581Z,23.86
2023-05-15T07:34:23.813Z,23.88
2023-05-15T07:36:28.898Z,23.85
2023-05-15T07:38:33.964Z,23.86
2023-05-15T07:40:39.026Z,23.83
2023-05-15T07:42:44.051Z,23.85
2023-05-15T07:44:49.636Z,23.83
2023-05-15T07:46:54.928Z,23.84
2023-05-15T07:48:59.990Z,23.86
2023-05-15T07:51:05.181Z,23.87
2023-05-15T07:53:10.286Z,23.85
2023-05-15T07:55:15.466Z,23.83
2023-05-15T07:57:20.512Z,23.84
2023-05-15T07:59:25.608Z,23.86
2023-05-15T08:01:32.623Z,23.84
2023-05-15T08:03:37.945Z,23.86
2023-05-15T08:05:43.299Z,23.84
2023-05-15T08:07:48.316Z,23.84
2023-05-15T08:09:53.355Z,23.88
2023-05-15T08:11:58.347Z,23.88
2023-05-15T08:14:03.610Z,23.87
2023-05-15T08:16:08.844Z,23.87
2023-05-15T08:18:14.160Z,23.9
2023-05-15T08:20:19.169Z,23.89
2023-05-15T08:22:24.447Z,23.92
2023-05-15T08:24:29.570Z,23.93
2023-05-15T08:26:34.798Z,23.93
2023-05-15T08:28:39.887Z,23.93
2023-05-15T08:30:44.995Z,23.96
2023-05-15T08:32:50.108Z,23.99
2023-05-15T08:34:55.307Z,24.01
2023-05-15T08:37:00.321Z,24.01
2023-05-15T08:39:05.436Z,24.04
2023-05-15T08:41:10.444Z,24.05
2023-05-15T08:43:15.491Z,24.06
2023-05-15T08:45:20.702Z,24.07
2023-05-15T08:47:25.831Z,24.08
2023-05-15T08:49:31.009Z,24.09
2023-05-15T08:51:36.134Z,24.09
2023-05-15T08:53:41.185Z,24.12
2023-05-15T08:55:46.229Z,24.14
2023-05-15T08:57:51.260Z,24.15
2023-05-15T08:59:56.308Z,24.12
2023-05-15T09:02:01.542Z,24.13
2023-05-15T09:04:07.091Z,24.1
2023-05-15T09:06:12.423Z,24.1
2023-05-15T09:08:17.554Z,24.07
2023-05-15T09:10:22.649Z,24.07
2023-05-15T09:12:27.749Z,24.04
2023-05-15T09:14:32.769Z,23.99
2023-05-15T09:16:37.934Z,24.03
2023-05-15T09:18:43.251Z,24.03
2023-05-15T09:20:48.496Z,24.06
2023-05-15T09:22:53.546Z,24.06
2023-05-15T09:24:58.654Z,24.05
2023-05-15T09:27:03.700Z,24.02
2023-05-15T09:29:08.764Z,24.02
2023-05-15T09:31:13.763Z,24.06
2023-05-15T09:33:18.852Z,24.05
2023-05-15T09:35:24.930Z,24.04
2023-05-15T09:37:33.011Z,24.05
2023-05-15T09:39:38.269Z,24.07
2023-05-15T09:41:43.276Z,24.08
2023-05-15T09:43:48.328Z,24.09
2023-05-15T09:45:53.562Z,24.13
2023-05-15T09:47:58.937Z,24.1
2023-05-15T09:50:04.722Z,24.1
2023-05-15T09:52:09.829Z,24.09
2023-05-15T09:54:15.152Z,24.09
2023-05-15T09:56:20.290Z,24.09
2023-05-15T09:58:25.408Z,24.09
2023-05-15T10:00:32.558Z,24.12
2023-05-15T10:02:37.791Z,24.15
2023-05-15T10:04:42.916Z,24.16
2023-05-15T10:06:48.062Z,24.16
2023-05-15T10:08:53.198Z,24.15
2023-05-15T10:10:58.340Z,24.12
2023-05-15T10:13:03.435Z,24.1
2023-05-15T10:15:08.646Z,24.12
2023-05-15T10:17:13.665Z,24.1
2023-05-15T10:19:18.730Z,24.08
2023-05-15T10:21:24.294Z,24.05
2023-05-15T10:23:29.352Z,24.07
2023-05-15T10:25:34.419Z,24.08
2023-05-15T10:27:39.463Z,24.1
2023-05-15T10:29:44.529Z,24.09
2023-05-15T10:31:49.683Z,24.09
2023-05-15T10:33:55.031Z,24.08
2023-05-15T10:36:00.078Z,24.12
2023-05-15T10:38:05.254Z,24.13
2023-05-15T10:40:10.349Z,24.16
2023-05-15T10:42:15.679Z,24.16
2023-05-15T10:44:20.758Z,24.18
2023-05-15T10:46:25.822Z,24.17
2023-05-15T10:48:31.023Z,24.17
2023-05-15T10:50:36.238Z,24.18
2023-05-15T10:52:41.783Z,24.18
2023-05-15T10:54:46.931Z,24.2
2023-05-15T10:56:52.455Z,24.18
2023-05-15T10:58:57.593Z,24.16
2023-05-15T11:01:02.681Z,24.15
2023-05-15T11:03:08.032Z,24.2
2023-05-15T11:05:13.404Z,24.2
2023-05-15T11:07:18.467Z,24.22
2023-05-15T11:09:23.881Z,24.24
2023-05-15T11:11:31.752Z,24.24
2023-05-15T11:13:36.809Z,24.24
2023-05-15T11:15:41.867Z,24.24
2023-05-15T11:17:47.039Z,24.25
2023-05-15T11:19:52.213Z,24.26
2023-05-15T11:21:57.404Z,24.24
2023-05-15T11:24:02.406Z,24.28
2023-05-15T11:26:07.613Z,24.28
2023-05-15T11:28:12.654Z,24.31
2023-05-15T11:30:17.660Z,24.3
2023-05-15T11:32:22.667Z,24.32
2023-05-15T11:34:27.709Z,24.34
2023-05-15T11:36:32.763Z,24.37
2023-05-15T11:38:40.453Z,24.42
2023-05-15T11:40:45.513Z,24.29
2023-05-15T11:42:50.896Z,24.19
2023-05-15T11:44:56.065Z,24.04
2023-05-15T11:47:03.572Z,23.93
2023-05-15T11:49:08.871Z,23.78
2023-05-15T11:51:13.869Z,23.63
2023-05-15T11:53:18.913Z,23.53
2023-05-15T11:55:24.129Z,23.43
2023-05-15T11:57:29.256Z,23.36
2023-05-15T11:59:34.279Z,23.31
2023-05-15T12:01:39.366Z,23.26
2023-05-15T12:03:44.617Z,23.2
2023-05-15T12:05:58.812Z,23.13
2023-05-15T12:08:04.549Z,23.07
2023-05-15T12:10:09.623Z,22.98
2023-05-15T12:12:15.149Z,22.94
2023-05-15T12:14:20.199Z,22.94
2023-05-15T12:16:25.221Z,22.92
2023-05-15T12:18:30.545Z,22.92
2023-05-15T12:20:36.022Z,22.95
2023-05-15T12:22:42.074Z,22.92
2023-05-15T12:24:47.269Z,22.9
2023-05-15T12:26:52.466Z,22.87
2023-05-15T12:29:00.464Z,22.85
2023-05-15T12:31:05.529Z,22.76
2023-05-15T12:33:10.887Z,22.75
2023-05-15T12:35:16.230Z,22.74
2023-05-15T12:37:21.461Z,22.76
2023-05-15T12:39:26.467Z,22.76
2023-05-15T12:41:31.527Z,22.82
2023-05-15T12:43:36.586Z,22.85
2023-05-15T12:45:41.627Z,22.93
2023-05-15T12:47:46.814Z,23.06
2023-05-15T12:49:52.156Z,23.23
2023-05-15T12:51:57.161Z,23.4
2023-05-15T12:54:02.138Z,23.57
2023-05-15T12:56:07.465Z,23.71
2023-05-15T12:58:13.450Z,23.83
2023-05-15T13:00:18.586Z,23.93
2023-05-15T13:02:23.632Z,23.98
2023-05-15T13:04:28.869Z,24.06
2023-05-15T13:06:45.430Z,24.11
2023-05-15T13:08:51.844Z,24.16
2023-05-15T13:10:56.895Z,24.22
2023-05-15T13:13:02.087Z,24.27
2023-05-15T13:15:07.161Z,24.31
2023-05-15T13:17:12.253Z,24.35
2023-05-15T13:19:17.345Z,24.37
2023-05-15T13:21:22.586Z,24.42
2023-05-15T13:23:27.613Z,24.43
2023-05-15T13:25:32.611Z,24.46
2023-05-15T13:27:37.662Z,24.48
2023-05-15T13:29:42.723Z,24.51
2023-05-15T13:31:47.796Z,24.52
2023-05-15T13:33:53.144Z,24.55
2023-05-15T13:35:58.191Z,24.56
2023-05-15T13:38:03.189Z,24.58
2023-05-15T13:40:08.250Z,24.58
2023-05-15T13:42:13.280Z,24.59
2023-05-15T13:44:18.356Z,24.62
2023-05-15T13:46:23.569Z,24.56
2023-05-15T13:48:28.884Z,24.63
2023-05-15T13:50:33.902Z,24.65
2023-05-15T13:52:38.948Z,24.67
2023-05-15T13:54:43.984Z,24.68
2023-05-15T13:56:49.014Z,24.72
2023-05-15T13:58:54.012Z,24.72
2023-05-15T14:00:59.119Z,24.74
2023-05-15T14:03:04.467Z,24.74
2023-05-15T14:05:09.889Z,24.75
2023-05-15T14:07:15.218Z,24.78
2023-05-15T14:09:20.405Z,24.77
2023-05-15T14:11:25.437Z,24.77
2023-05-15T14:13:30.545Z,24.78
2023-05-15T14:15:35.667Z,24.77
2023-05-15T14:17:40.854Z,24.76
2023-05-15T14:19:46.110Z,24.76
2023-05-15T14:21:51.184Z,24.75
2023-05-15T14:23:56.228Z,24.77
2023-05-15T14:26:01.304Z,24.77
2023-05-15T14:28:06.337Z,24.76
2023-05-15T14:30:11.352Z,24.76
2023-05-15T14:32:16.567Z,24.78
2023-05-15T14:34:22.172Z,24.8
2023-05-15T14:36:27.356Z,24.8
2023-05-15T14:38:32.506Z,24.79
2023-05-15T14:40:37.593Z,24.79
2023-05-15T14:42:42.628Z,24.8
2023-05-15T14:44:47.675Z,24.82
2023-05-15T14:46:52.726Z,24.81
2023-05-15T14:48:57.787Z,24.82
2023-05-15T14:51:02.948Z,24.83
2023-05-15T14:53:07.998Z,24.84
2023-05-15T14:55:13.079Z,24.85
2023-05-15T14:57:18.134Z,24.84
2023-05-15T14:59:23.200Z,24.85
2023-05-15T15:01:28.279Z,24.86
2023-05-15T15:03:34.241Z,24.87
2023-05-15T15:05:39.734Z,24.89
2023-05-15T15:07:44.779Z,24.88
2023-05-15T15:09:49.838Z,24.89
2023-05-15T15:11:54.900Z,24.88
2023-05-15T15:14:00.051Z,24.9
2023-05-15T15:16:05.260Z,24.91
2023-05-15T15:18:10.677Z,24.95
2023-05-15T15:20:15.896Z,24.97
2023-05-15T15:22:20.986Z,24.99
2023-05-15T15:24:26.256Z,25.03
2023-05-15T15:26:31.315Z,25.06
2023-05-15T15:28:36.355Z,25.08
2023-05-15T15:30:41.339Z,25.12
2023-05-15T15:32:46.484Z,25.17
2023-05-15T15:34:51.803Z,25.2
2023-05-15T15:36:56.869Z,25.2
2023-05-15T15:39:01.875Z,25.19
2023-05-15T15:41:06.937Z,25.21
2023-05-15T15:43:12.162Z,25.19
2023-05-15T15:45:17.251Z,25.17
2023-05-15T15:47:22.226Z,25.16
2023-05-15T15:49:27.236Z,25.15
2023-05-15T15:51:32.307Z,25.18
2023-05-15T15:53:37.384Z,25.2
2023-05-15T15:55:42.400Z,25.23
2023-05-15T15:57:50.656Z,25.23
2023-05-15T15:59:55.695Z,25.24
2023-05-15T16:02:00.730Z,25.24
2023-05-15T16:04:05.877Z,25.25
2023-05-15T16:06:11.177Z,25.26
2023-05-15T16:08:16.234Z,25.24
2023-05-15T16:10:21.333Z,25.23
2023-05-15T16:12:26.363Z,25.22
2023-05-15T16:14:31.471Z,25.22
2023-05-15T16:16:36.593Z,25.21
2023-05-15T16:18:41.819Z,25.18
2023-05-15T16:20:46.967Z,25.16
2023-05-15T16:22:52.077Z,25.17
2023-05-15T16:24:57.141Z,25.16
2023-05-15T16:27:02.185Z,25.16
2023-05-15T16:29:07.270Z,25.19
2023-05-15T16:31:12.412Z,25.16
2023-05-15T16:33:17.982Z,25.17
2023-05-15T16:35:23.413Z,25.2
2023-05-15T16:37:28.441Z,25.2
2023-05-15T16:39:33.629Z,25.16
2023-05-15T16:41:38.722Z,25.16
2023-05-15T16:43:43.744Z,25.17
2023-05-15T16:45:48.841Z,25.15
2023-05-15T16:47:53.948Z,25.16
2023-05-15T16:49:59.327Z,25.12
2023-05-15T16:52:04.394Z,25.11
2023-05-15T16:54:09.404Z,25.14
2023-05-15T16:56:14.477Z,25.09
2023-05-15T16:58:19.465Z,25.11
2023-05-15T17:00:24.585Z,25.1
2023-05-15T17:02:30.537Z,25.12
2023-05-15T17:04:35.848Z,25.14
2023-05-15T17:06:41.438Z,25.13
2023-05-15T17:08:46.575Z,25.12
2023-05-15T17:10:51.611Z,25.12
2023-05-15T17:12:56.719Z,25.13
2023-05-15T17:15:01.749Z,25.11
2023-05-15T17:17:06.820Z,25.14
2023-05-15T17:19:11.943Z,25.13
2023-05-15T17:21:17.404Z,25.16
2023-05-15T17:23:23.105Z,25.17
2023-05-15T17:25:28.391Z,25.16
2023-05-15T17:27:33.481Z,25.17
2023-05-15T17:29:38.569Z,25.16
2023-05-15T17:31:44.000Z,25.13
2023-05-15T17:33:49.281Z,25.14
2023-05-15T17:35:54.328Z,25.13
2023-05-15T17:37:59.321Z,25.07
2023-05-15T17:40:04.313Z,24.87
2023-05-15T17:42:09.421Z,24.66
2023-05-15T17:44:14.582Z,24.5
2023-05-15T17:46:19.724Z,24.33
2023-05-15T17:48:24.973Z,24.16
2023-05-15T17:50:30.118Z,24.04
2023-05-15T17:52:35.422Z,23.88
2023-05-15T17:54:40.465Z,23.8
2023-05-15T17:56:45.522Z,23.82
2023-05-15T17:58:50.752Z,23.72
2023-05-15T18:00:55.837Z,23.62
2023-05-15T18:03:01.346Z,23.61
2023-05-15T18:05:06.895Z,23.59
2023-05-15T18:07:12.002Z,23.68
2023-05-15T18:09:17.101Z,23.8
2023-05-15T18:11:23.577Z,23.92
2023-05-15T18:13:28.612Z,23.98
2023-05-15T18:15:33.739Z,24.04
2023-05-15T18:17:39.066Z,24.1
2023-05-15T18:19:44.261Z,24.18
2023-05-15T18:21:49.372Z,24.23
2023-05-15T18:23:54.366Z,24.29
2023-05-15T18:25:59.427Z,24.35
2023-05-15T18:28:04.611Z,24.41
2023-05-15T18:30:09.709Z,24.48
2023-05-15T18:32:14.756Z,24.5
2023-05-15T18:34:19.727Z,24.54
2023-05-15T18:36:24.770Z,24.55
2023-05-15T18:38:29.826Z,24.5
2023-05-15T18:40:34.915Z,24.37
2023-05-15T18:42:39.927Z,24.28
2023-05-15T18:44:44.975Z,24.15
2023-05-15T18:46:50.115Z,24.09
2023-05-15T18:48:55.361Z,24.02
2023-05-15T18:51:00.566Z,23.98
2023-05-15T18:53:05.605Z,23.94
2023-05-15T18:55:10.674Z,23.9
2023-05-15T18:57:15.836Z,23.87
2023-05-15T18:59:20.885Z,23.91
2023-05-15T19:01:25.985Z,23.89
2023-05-15T19:03:31.189Z,23.78
2023-05-15T19:05:36.475Z,23.8
2023-05-15T19:07:41.612Z,23.85
2023-05-15T19:09:46.677Z,23.88
2023-05-15T19:11:51.763Z,23.92
2023-05-15T19:13:56.734Z,23.92
2023-05-15T19:16:01.838Z,23.96
2023-05-15T19:18:07.025Z,23.92
2023-05-15T19:20:12.404Z,23.91
2023-05-15T19:22:17.416Z,23.91
2023-05-15T19:24:22.439Z,23.91
2023-05-15T19:26:27.474Z,23.91
2023-05-15T19:28:32.577Z,23.95
2023-05-15T19:30:37.639Z,23.97
2023-05-15T19:32:42.735Z,24
2023-05-15T19:34:48.074Z,24
2023-05-15T19:36:53.327Z,24.01
2023-05-15T19:38:58.562Z,24.09
2023-05-15T19:41:03.798Z,24.16
2023-05-15T19:43:08.889Z,24.24
2023-05-15T19:45:14.165Z,24.33
2023-05-15T19:47:19.224Z,24.39
2023-05-15T19:49:24.286Z,24.43
2023-05-15T19:51:29.450Z,24.49
2023-05-15T19:53:34.449Z,24.54
2023-05-15T19:55:39.496Z,24.58
2023-05-15T19:57:44.500Z,24.59
2023-05-15T19:59:49.544Z,24.61
2023-05-15T20:01:54.664Z,24.61
2023-05-15T20:03:59.951Z,24.61
2023-05-15T20:06:05.384Z,24.62
2023-05-15T20:08:10.529Z,24.63
2023-05-15T20:10:15.616Z,24.64
2023-05-15T20:12:20.732Z,24.65
2023-05-15T20:14:25.794Z,24.65
2023-05-15T20:16:30.881Z,24.66
2023-05-15T20:18:36.119Z,24.67
2023-05-15T20:20:41.285Z,24.66
2023-05-15T20:22:46.364Z,24.68
2023-05-15T20:24:51.480Z,24.7
2023-05-15T20:26:56.668Z,24.73
2023-05-15T20:29:01.734Z,24.76
2023-05-15T20:31:06.747Z,24.77
2023-05-15T20:33:12.032Z,24.79
2023-05-15T20:35:17.532Z,24.74
2023-05-15T20:37:22.595Z,24.62
2023-05-15T20:39:27.631Z,24.57
2023-05-15T20:41:32.625Z,24.54
2023-05-15T20:43:37.664Z,24.52
2023-05-15T20:45:42.746Z,24.5
2023-05-15T20:47:48.093Z,24.51
2023-05-15T20:49:53.220Z,24.49
2023-05-15T20:51:58.275Z,24.51
2023-05-15T20:54:03.375Z,24.53
2023-05-15T20:56:08.402Z,24.49
2023-05-15T20:58:13.508Z,24.47
2023-05-15T21:00:18.598Z,24.5
2023-05-15T21:02:23.749Z,24.51
2023-05-15T21:04:28.886Z,24.51
2023-05-15T21:06:33.920Z,24.51
2023-05-15T21:08:38.977Z,24.5
2023-05-15T21:10:44.012Z,24.49
2023-05-15T21:12:49.332Z,24.46
2023-05-15T21:14:54.376Z,24.43
2023-05-15T21:16:59.440Z,24.43
2023-05-15T21:19:04.859Z,24.39
2023-05-15T21:21:10.201Z,24.37
2023-05-15T21:23:15.291Z,24.36
2023-05-15T21:25:20.281Z,24.33
2023-05-15T21:27:25.475Z,24.32
2023-05-15T21:29:30.484Z,24.32
2023-05-15T21:31:35.634Z,24.3
2023-05-15T21:33:40.972Z,24.28
2023-05-15T21:35:46.092Z,24.26
2023-05-15T21:37:51.168Z,24.27
2023-05-15T21:39:56.210Z,24.26
2023-05-15T21:42:01.237Z,24.24
2023-05-15T21:44:06.435Z,24.22
2023-05-15T21:46:11.455Z,24.21
2023-05-15T21:48:16.600Z,24.21
2023-05-15T21:50:21.635Z,24.2
2023-05-15T21:52:26.952Z,24.2
2023-05-15T21:54:31.980Z,24.17
2023-05-15T21:56:36.957Z,24.14
2023-05-15T21:58:41.958Z,24.13
2023-05-15T22:00:46.991Z,24.1
2023-05-15T22:02:52.118Z,24.12
2023-05-15T22:04:57.415Z,24.11
2023-05-15T22:07:02.574Z,24.12
2023-05-15T22:09:07.578Z,24.1
2023-05-15T22:11:12.577Z,24.12
2023-05-15T22:13:17.662Z,24.09
2023-05-15T22:15:22.694Z,24.08
2023-05-15T22:17:27.775Z,24.07
2023-05-15T22:19:33.871Z,24.07
2023-05-15T22:21:39.219Z,24.07
2023-05-15T22:23:44.249Z,24.06
2023-05-15T22:25:49.356Z,24.05
2023-05-15T22:27:54.423Z,24.03
2023-05-15T22:29:59.460Z,24.02
2023-05-15T22:32:04.501Z,24.01
2023-05-15T22:34:09.937Z,24.01
2023-05-15T22:36:15.080Z,24.01
2023-05-15T22:38:20.102Z,24.02
2023-05-15T22:40:25.341Z,24.01
2023-05-15T22:42:31.223Z,24
2023-05-15T22:44:36.254Z,23.99
2023-05-15T22:46:41.325Z,24.01
2023-05-15T22:48:46.372Z,24.01
2023-05-15T22:50:51.357Z,23.99
2023-05-15T22:52:56.416Z,24
2023-05-15T22:55:01.435Z,23.99
2023-05-15T22:57:06.618Z,23.99
2023-05-15T22:59:11.699Z,24
2023-05-15T23:01:16.827Z,23.99
2023-05-15T23:03:22.087Z,23.97
2023-05-15T23:05:27.429Z,23.97
2023-05-15T23:07:32.470Z,23.97
2023-05-15T23:09:37.536Z,23.95
2023-05-15T23:11:42.672Z,23.93
2023-05-15T23:13:47.768Z,23.93
2023-05-15T23:15:52.817Z,23.92
2023-05-15T23:17:58.102Z,23.92
2023-05-15T23:20:03.236Z,23.9
2023-05-15T23:22:08.506Z,23.92
2023-05-15T23:24:13.513Z,23.92
2023-05-15T23:26:18.617Z,23.92
2023-05-15T23:28:23.706Z,23.91
2023-05-15T23:30:28.773Z,23.92
2023-05-15T23:32:33.960Z,23.92
2023-05-15T23:34:39.249Z,23.94
2023-05-15T23:36:44.216Z,23.94
2023-05-15T23:38:49.259Z,23.94
2023-05-15T23:40:54.252Z,23.93
2023-05-15T23:42:59.253Z,23.92
2023-05-15T23:45:04.371Z,23.93
2023-05-15T23:47:09.538Z,23.92
2023-05-15T23:49:15.063Z,23.92
2023-05-15T23:51:20.098Z,23.92
2023-05-15T23:53:25.139Z,23.92
2023-05-15T23:55:30.152Z,23.93
2023-05-15T23:57:35.227Z,23.94
2023-05-15T23:59:40.273Z,23.9
